Moxee City, Washington
Current Conditions -  °F | °C
As of 11:56 AM on Sunday 21 Dec 2014 (Local Time) from K1YT Reporting Station
Clear Clear  
Wind Chill: 53°   Ceiling: Unl
Heat Index: 53°   Visibility: 10mi
Dew Point: 38°   Wind: 14mph
Humidity: 57%   Direction: 260°W
Pressure: 29.89"   Gusts: 18mph
Location:  46.5157°N, 120.098°W
Report Text: K1YT 211956Z AUTO 26012G16KT 10SM CLR 12/03 A2989 RMK AO2 SLPNO T01160033
Loading
Personal Weather Stations






























Interactive Weather Map New forecast layout! Learn more

10-Day Weather Forecast

Advertisements
Track Severe Weather on mobile